Time;durP1;ratioP1;P1;durP2;ratioP2;P2;SDS_P1;SDS_P2;PMS_P1;PMS_P2;Temp;Humidity;BMP_temperature;BMP_pressure;BME280_temperature;BME280_humidity;BME280_pressure;Samples;Min_cycle;Max_cycle;Signal;HPM_P1;HPM_P2
2022/11/25 00:01:23;;;;;;;15.40;10.10;;;;;;;;;;5074784;28;20467;-75
2022/11/25 00:03:51;;;;;;;10.93;8.43;;;;;;;;;;5076441;28;20464;-76
2022/11/25 00:06:19;;;;;;;11.63;9.20;;;;;;;;;;5076232;28;20483;-77
2022/11/25 00:08:47;;;;;;;13.97;10.43;;;;;;;;;;5076589;28;20480;-76
2022/11/25 00:11:14;;;;;;;13.63;9.23;;;;;;;;;;5078256;28;20444;-76
2022/11/25 00:13:42;;;;;;;12.80;9.17;;;;;;;;;;5076111;28;20998;-77
2022/11/25 00:16:12;;;;;;;11.57;9.67;;;;;;;;;;5076522;28;20953;-76
2022/11/25 00:18:39;;;;;;;14.17;9.20;;;;;;;;;;5075135;28;20932;-77
2022/11/25 00:21:07;;;;;;;11.33;10.13;;;;;;;;;;5075510;28;20447;-77
2022/11/25 00:23:34;;;;;;;11.20;9.17;;;;;;;;;;5075347;28;20444;-75
2022/11/25 00:26:06;;;;;;;12.37;10.37;;;;;;;;;;5078267;28;20518;-76
2022/11/25 00:28:33;;;;;;;13.73;10.20;;;;;;;;;;5085293;28;20457;-75
2022/11/25 00:31:04;;;;;;;13.93;10.20;;;;;;;;;;5088438;28;20806;-76
2022/11/25 00:33:33;;;;;;;12.70;10.13;;;;;;;;;;5083143;28;20447;-76
2022/11/25 00:36:01;;;;;;;13.87;11.23;;;;;;;;;;5074077;28;20433;-77
2022/11/25 00:38:28;;;;;;;14.97;11.20;;;;;;;;;;5073371;28;20516;-78
2022/11/25 00:44:34;;;;;;;20.43;12.23;;;;;;;;;;5073898;28;20932;-77
2022/11/25 00:46:27;;;;;;;13.63;11.17;;;;;;;;;;5073815;28;20439;-76
2022/11/25 00:48:55;;;;;;;13.07;10.50;;;;;;;;;;5073143;28;20952;-76
2022/11/25 00:51:22;;;;;;;12.30;10.20;;;;;;;;;;5073712;28;20454;-76
2022/11/25 00:53:51;;;;;;;13.37;11.97;;;;;;;;;;5072819;28;20464;-77
2022/11/25 00:56:18;;;;;;;16.93;10.70;;;;;;;;;;5073603;28;20479;-77
2022/11/25 00:58:45;;;;;;;14.17;11.07;;;;;;;;;;5073213;28;20475;-77
2022/11/25 01:01:12;;;;;;;11.67;10.57;;;;;;;;;;5073225;28;20450;-77
2022/11/25 01:03:39;;;;;;;11.80;10.33;;;;;;;;;;5071988;28;20487;-76
2022/11/25 01:06:09;;;;;;;16.50;11.60;;;;;;;;;;5072152;28;20456;-76
2022/11/25 01:08:37;;;;;;;14.37;11.03;;;;;;;;;;5072640;28;20826;-77
2022/11/25 01:11:05;;;;;;;15.03;10.37;;;;;;;;;;5073166;28;20789;-76
2022/11/25 01:13:32;;;;;;;12.97;11.40;;;;;;;;;;5075193;28;20456;-76
2022/11/25 01:16:01;;;;;;;15.47;11.23;;;;;;;;;;5076587;28;20455;-76
2022/11/25 01:18:28;;;;;;;13.53;12.10;;;;;;;;;;5076440;28;20484;-77
2022/11/25 01:20:56;;;;;;;13.53;10.47;;;;;;;;;;5075907;28;20455;-75
2022/11/25 01:23:24;;;;;;;12.13;10.20;;;;;;;;;;5075311;28;20444;-76
2022/11/25 01:25:51;;;;;;;19.00;11.13;;;;;;;;;;5072322;28;20811;-75
2022/11/25 01:28:18;;;;;;;14.30;11.13;;;;;;;;;;5072304;28;20940;-77
2022/11/25 01:30:45;;;;;;;12.43;10.77;;;;;;;;;;5072220;28;20788;-77
2022/11/25 01:33:12;;;;;;;13.73;10.90;;;;;;;;;;5071462;28;20451;-77
2022/11/25 01:35:39;;;;;;;16.57;11.33;;;;;;;;;;5072030;28;20841;-77
2022/11/25 01:38:06;;;;;;;12.33;11.00;;;;;;;;;;5071810;28;20839;-77
2022/11/25 01:40:36;;;;;;;16.17;11.60;;;;;;;;;;5071997;28;20452;-76
2022/11/25 01:43:03;;;;;;;12.40;11.10;;;;;;;;;;5071460;28;20448;-76
2022/11/25 01:45:33;;;;;;;12.60;11.10;;;;;;;;;;5071770;28;20471;-77
2022/11/25 01:48:03;;;;;;;15.70;11.20;;;;;;;;;;5071794;28;20814;-76
2022/11/25 01:50:31;;;;;;;15.43;11.37;;;;;;;;;;5071084;28;20445;-76
2022/11/25 01:52:58;;;;;;;14.23;10.60;;;;;;;;;;5071197;28;20540;-77
2022/11/25 01:55:28;;;;;;;15.30;11.97;;;;;;;;;;5071554;28;20492;-77
2022/11/25 01:57:58;;;;;;;16.53;12.47;;;;;;;;;;5071862;28;20475;-76
2022/11/25 02:00:26;;;;;;;16.10;10.70;;;;;;;;;;5071324;28;20429;-77
2022/11/25 02:02:55;;;;;;;12.40;11.17;;;;;;;;;;5071245;28;20455;-76
2022/11/25 02:05:25;;;;;;;15.87;10.80;;;;;;;;;;5071332;28;20476;-76
2022/11/25 02:07:53;;;;;;;14.30;10.30;;;;;;;;;;5071415;28;20544;-76
2022/11/25 02:10:23;;;;;;;12.50;11.10;;;;;;;;;;5070982;28;20539;-76
2022/11/25 02:12:50;;;;;;;17.73;11.90;;;;;;;;;;5084234;28;20437;-75
2022/11/25 02:15:19;;;;;;;14.30;11.47;;;;;;;;;;5096356;28;20456;-75
2022/11/25 02:17:46;;;;;;;12.97;10.63;;;;;;;;;;5083225;28;20432;-76
2022/11/25 02:20:14;;;;;;;11.73;10.53;;;;;;;;;;5070922;28;20488;-76
2022/11/25 02:22:47;;;;;;;13.50;11.37;;;;;;;;;;5070490;28;20445;-76
2022/11/25 02:25:17;;;;;;;16.17;12.80;;;;;;;;;;5070758;28;21075;-77
2022/11/25 02:27:46;;;;;;;12.27;10.73;;;;;;;;;;5071006;28;20437;-77
2022/11/25 02:30:14;;;;;;;13.90;11.10;;;;;;;;;;5070735;28;20535;-76
2022/11/25 02:32:43;;;;;;;14.73;11.53;;;;;;;;;;5070341;28;20528;-76
2022/11/25 02:35:27;;;;;;;13.90;12.40;;;;;;;;;;5070882;28;20461;-77
2022/11/25 02:37:56;;;;;;;15.40;11.93;;;;;;;;;;5070810;28;20453;-76
2022/11/25 02:40:25;;;;;;;13.03;11.63;;;;;;;;;;5070708;28;20444;-75
2022/11/25 02:42:53;;;;;;;12.13;10.77;;;;;;;;;;5071625;28;20456;-76
2022/11/25 02:45:23;;;;;;;12.00;10.80;;;;;;;;;;5072157;28;20555;-76
2022/11/25 02:47:50;;;;;;;12.27;10.97;;;;;;;;;;5070720;28;20436;-75
2022/11/25 02:50:17;;;;;;;16.70;12.00;;;;;;;;;;5070545;28;20474;-76
2022/11/25 02:52:44;;;;;;;13.37;11.10;;;;;;;;;;5070112;28;20456;-76
2022/11/25 02:55:11;;;;;;;14.30;11.93;;;;;;;;;;5070625;28;20841;-76
2022/11/25 02:57:40;;;;;;;21.30;12.23;;;;;;;;;;5072316;28;20451;-76
2022/11/25 03:00:08;;;;;;;14.27;11.83;;;;;;;;;;5071040;28;20466;-77
2022/11/25 03:02:35;;;;;;;14.93;11.70;;;;;;;;;;5071381;28;20452;-76
2022/11/25 03:05:02;;;;;;;12.60;11.30;;;;;;;;;;5072552;28;20872;-75
2022/11/25 03:07:30;;;;;;;13.13;11.60;;;;;;;;;;5071147;28;20448;-75
2022/11/25 03:09:57;;;;;;;13.23;11.83;;;;;;;;;;5070804;28;20447;-76
2022/11/25 03:12:24;;;;;;;13.37;11.67;;;;;;;;;;5070195;28;20437;-76
2022/11/25 03:14:52;;;;;;;15.90;12.60;;;;;;;;;;5070239;28;20468;-76
2022/11/25 03:17:19;;;;;;;13.27;11.90;;;;;;;;;;5070528;28;20437;-77
2022/11/25 03:19:46;;;;;;;13.80;11.20;;;;;;;;;;5070612;28;20483;-76
2022/11/25 03:22:13;;;;;;;15.77;11.90;;;;;;;;;;5070442;28;20453;-77
2022/11/25 03:24:41;;;;;;;14.23;12.13;;;;;;;;;;5069751;28;20461;-78
2022/11/25 03:27:08;;;;;;;13.23;11.50;;;;;;;;;;5070466;28;20457;-77
2022/11/25 03:29:35;;;;;;;16.90;12.90;;;;;;;;;;5070110;28;20444;-76
2022/11/25 03:32:03;;;;;;;13.10;11.03;;;;;;;;;;5069943;28;20437;-75
2022/11/25 03:34:30;;;;;;;13.37;11.80;;;;;;;;;;5069478;28;20465;-76
2022/11/25 03:36:57;;;;;;;12.57;11.30;;;;;;;;;;5070215;28;20459;-76
2022/11/25 03:39:24;;;;;;;15.43;11.03;;;;;;;;;;5070038;28;20487;-77
2022/11/25 03:41:52;;;;;;;15.33;11.10;;;;;;;;;;5070214;28;20444;-75
2022/11/25 03:44:19;;;;;;;14.23;12.50;;;;;;;;;;5069891;28;20476;-78
2022/11/25 03:46:46;;;;;;;16.40;11.60;;;;;;;;;;5070195;28;20452;-75
2022/11/25 03:49:14;;;;;;;15.80;11.30;;;;;;;;;;5071822;28;20437;-76
2022/11/25 03:51:41;;;;;;;12.83;11.47;;;;;;;;;;5071825;28;20444;-76
2022/11/25 03:54:08;;;;;;;12.37;11.07;;;;;;;;;;5070999;28;20475;-76
2022/11/25 03:56:35;;;;;;;12.23;10.90;;;;;;;;;;5069784;28;20474;-76
2022/11/25 03:59:03;;;;;;;13.17;11.30;;;;;;;;;;5069543;28;20849;-76
2022/11/25 04:01:30;;;;;;;12.03;10.63;;;;;;;;;;5069744;28;20455;-76
2022/11/25 04:03:57;;;;;;;11.10;10.00;;;;;;;;;;5069194;28;20589;-76
2022/11/25 04:06:25;;;;;;;13.50;11.77;;;;;;;;;;5069608;28;20464;-76
2022/11/25 04:08:52;;;;;;;11.97;10.40;;;;;;;;;;5070037;28;20447;-76
2022/11/25 04:11:19;;;;;;;12.30;10.53;;;;;;;;;;5070148;28;20452;-76
2022/11/25 04:13:45;;;;;;;12.53;10.60;;;;;;;;;;5071439;28;20460;-75
2022/11/25 04:16:19;;;;;;;12.60;11.40;;;;;;;;;;5073712;28;20473;-77
2022/11/25 04:18:47;;;;;;;13.63;11.37;;;;;;;;;;5073292;28;20905;-76
2022/11/25 04:21:14;;;;;;;12.90;11.33;;;;;;;;;;5073090;28;20441;-76
2022/11/25 04:23:42;;;;;;;15.80;10.80;;;;;;;;;;5062462;28;20469;-76
2022/11/25 04:26:09;;;;;;;16.10;11.03;;;;;;;;;;5072860;28;20493;-77
2022/11/25 04:28:36;;;;;;;13.03;11.47;;;;;;;;;;5073261;28;20445;-75
2022/11/25 04:31:06;;;;;;;18.47;11.40;;;;;;;;;;5073266;28;20443;-76
2022/11/25 04:33:33;;;;;;;13.60;12.20;;;;;;;;;;5072599;28;20839;-76
2022/11/25 04:36:00;;;;;;;15.37;11.40;;;;;;;;;;5073194;28;20987;-76
2022/11/25 04:38:27;;;;;;;12.83;11.63;;;;;;;;;;5073349;28;20462;-77
2022/11/25 04:40:55;;;;;;;12.90;10.93;;;;;;;;;;5073533;28;20443;-76
2022/11/25 04:43:22;;;;;;;15.37;11.50;;;;;;;;;;5074271;28;20449;-75
2022/11/25 04:45:50;;;;;;;12.60;11.30;;;;;;;;;;5074025;28;20458;-77
2022/11/25 04:48:17;;;;;;;15.93;11.53;;;;;;;;;;5073183;28;20444;-75
2022/11/25 04:50:44;;;;;;;13.47;11.10;;;;;;;;;;5073004;28;20447;-77
2022/11/25 04:53:11;;;;;;;14.33;11.50;;;;;;;;;;5073562;28;20460;-76
2022/11/25 04:55:38;;;;;;;14.33;12.93;;;;;;;;;;5074358;28;20473;-76
2022/11/25 04:58:07;;;;;;;25.40;22.30;;;;;;;;;;5074303;28;20451;-75
2022/11/25 05:00:33;;;;;;;16.20;12.27;;;;;;;;;;5072799;28;20478;-77
2022/11/25 05:03:00;;;;;;;14.10;11.60;;;;;;;;;;5072157;28;20494;-76
2022/11/25 05:05:27;;;;;;;15.03;10.90;;;;;;;;;;5072674;28;20476;-76
2022/11/25 05:07:54;;;;;;;14.50;12.07;;;;;;;;;;5072536;28;20459;-77
2022/11/25 05:10:21;;;;;;;13.10;11.30;;;;;;;;;;5072983;28;20475;-77
2022/11/25 05:12:48;;;;;;;13.67;11.23;;;;;;;;;;5072396;28;20451;-77
2022/11/25 05:15:17;;;;;;;11.70;10.30;;;;;;;;;;5072587;28;20464;-76
2022/11/25 05:17:44;;;;;;;12.50;11.17;;;;;;;;;;5072603;28;20474;-77
2022/11/25 05:20:12;;;;;;;16.27;14.53;;;;;;;;;;5072689;28;20479;-76
2022/11/25 05:22:39;;;;;;;12.50;11.03;;;;;;;;;;5071909;28;20719;-76
2022/11/25 05:25:06;;;;;;;15.07;11.03;;;;;;;;;;5072113;28;20836;-76
2022/11/25 05:27:33;;;;;;;14.00;11.10;;;;;;;;;;5072292;28;20443;-77
2022/11/25 05:30:00;;;;;;;13.87;10.70;;;;;;;;;;5075068;28;20442;-75
2022/11/25 05:32:28;;;;;;;14.93;10.73;;;;;;;;;;5079220;28;20455;-76
2022/11/25 05:34:56;;;;;;;12.23;11.03;;;;;;;;;;5079705;28;20478;-78
2022/11/25 05:37:23;;;;;;;11.93;10.73;;;;;;;;;;5076582;28;20451;-76
2022/11/25 05:39:50;;;;;;;14.80;10.70;;;;;;;;;;5082859;28;20483;-76
2022/11/25 05:42:17;;;;;;;12.83;11.70;;;;;;;;;;5084184;28;20459;-76
2022/11/25 05:44:44;;;;;;;18.00;11.77;;;;;;;;;;5081591;28;20476;-75
2022/11/25 05:47:11;;;;;;;11.43;10.33;;;;;;;;;;5075787;28;20447;-77
2022/11/25 05:49:39;;;;;;;11.30;10.10;;;;;;;;;;5077640;28;20443;-76
2022/11/25 05:52:06;;;;;;;12.77;11.47;;;;;;;;;;5075645;28;20463;-77
2022/11/25 05:54:33;;;;;;;14.20;10.50;;;;;;;;;;5053149;28;20465;-75
2022/11/25 05:57:00;;;;;;;12.83;11.53;;;;;;;;;;5061083;28;20460;-76
2022/11/25 05:59:28;;;;;;;15.77;11.60;;;;;;;;;;5057396;28;20480;-76
2022/11/25 06:01:55;;;;;;;14.80;12.17;;;;;;;;;;5051757;28;20976;-77
2022/11/25 06:04:22;;;;;;;15.83;13.50;;;;;;;;;;5051230;28;20472;-76
2022/11/25 06:06:50;;;;;;;17.23;12.40;;;;;;;;;;5051837;28;20441;-77
2022/11/25 06:09:17;;;;;;;13.17;11.77;;;;;;;;;;5052174;28;20441;-76
2022/11/25 06:11:44;;;;;;;12.23;10.90;;;;;;;;;;5066187;28;20463;-77
2022/11/25 06:14:11;;;;;;;12.57;11.30;;;;;;;;;;5070990;28;20467;-77
2022/11/25 06:16:39;;;;;;;29.97;19.80;;;;;;;;;;5071773;28;20444;-77
2022/11/25 06:19:06;;;;;;;16.30;11.73;;;;;;;;;;5071571;28;20476;-76
2022/11/25 06:21:33;;;;;;;17.00;14.30;;;;;;;;;;5071443;28;20454;-76
2022/11/25 06:24:01;;;;;;;18.33;13.87;;;;;;;;;;5070870;28;20513;-77
2022/11/25 06:26:28;;;;;;;16.53;14.80;;;;;;;;;;5070667;28;20455;-77
2022/11/25 06:28:56;;;;;;;14.83;12.80;;;;;;;;;;5070718;28;20971;-78
2022/11/25 06:31:25;;;;;;;16.20;13.13;;;;;;;;;;5070832;28;20455;-77
2022/11/25 06:33:52;;;;;;;17.47;12.70;;;;;;;;;;5070177;28;20464;-77
2022/11/25 06:36:21;;;;;;;12.97;11.77;;;;;;;;;;5070481;28;20962;-77
2022/11/25 06:38:49;;;;;;;14.07;11.40;;;;;;;;;;5070779;28;20527;-77
2022/11/25 06:41:17;;;;;;;17.93;14.67;;;;;;;;;;5070773;28;20460;-77
2022/11/25 06:43:44;;;;;;;18.93;12.87;;;;;;;;;;5069696;28;20469;-75
2022/11/25 06:46:13;;;;;;;14.73;12.00;;;;;;;;;;5070731;28;20448;-77
2022/11/25 06:48:40;;;;;;;13.67;11.90;;;;;;;;;;5070662;28;20472;-77
2022/11/25 06:51:09;;;;;;;14.17;11.53;;;;;;;;;;5070914;28;20452;-77
2022/11/25 06:53:36;;;;;;;13.57;10.77;;;;;;;;;;5070559;28;20528;-77
2022/11/25 06:56:05;;;;;;;14.23;11.90;;;;;;;;;;5070570;28;20817;-76
2022/11/25 06:58:34;;;;;;;15.17;11.83;;;;;;;;;;5070590;28;20447;-77
2022/11/25 07:01:02;;;;;;;14.43;11.07;;;;;;;;;;5070409;28;20519;-76
2022/11/25 07:03:29;;;;;;;15.60;10.83;;;;;;;;;;5069570;28;20444;-75
2022/11/25 07:05:57;;;;;;;20.90;12.00;;;;;;;;;;5070218;28;20502;-76
2022/11/25 07:08:24;;;;;;;16.03;13.00;;;;;;;;;;5070434;28;20502;-76
2022/11/25 07:10:51;;;;;;;14.40;12.10;;;;;;;;;;5070197;28;20443;-76
2022/11/25 07:13:18;;;;;;;13.23;11.40;;;;;;;;;;5070177;28;20443;-77
2022/11/25 07:15:46;;;;;;;16.07;11.70;;;;;;;;;;5070246;28;20486;-77
2022/11/25 07:18:13;;;;;;;13.80;11.80;;;;;;;;;;5070337;28;20471;-76
2022/11/25 07:20:41;;;;;;;13.67;11.40;;;;;;;;;;5070493;28;20495;-78
2022/11/25 07:23:08;;;;;;;15.23;11.97;;;;;;;;;;5069975;28;20451;-77
2022/11/25 07:25:35;;;;;;;13.63;12.20;;;;;;;;;;5070323;28;20465;-76
2022/11/25 07:28:02;;;;;;;17.43;12.77;;;;;;;;;;5071337;28;20459;-78
2022/11/25 07:30:29;;;;;;;14.17;12.63;;;;;;;;;;5070837;28;20518;-77
2022/11/25 07:32:57;;;;;;;13.00;11.60;;;;;;;;;;5069358;28;20448;-77
2022/11/25 07:35:24;;;;;;;17.93;12.17;;;;;;;;;;5070012;28;20463;-77
2022/11/25 07:37:52;;;;;;;14.63;12.40;;;;;;;;;;5070146;28;20455;-77
2022/11/25 07:40:20;;;;;;;15.73;12.10;;;;;;;;;;5070139;28;20541;-77
2022/11/25 07:42:47;;;;;;;15.20;12.33;;;;;;;;;;5069512;28;20448;-78
2022/11/25 07:45:14;;;;;;;16.73;12.50;;;;;;;;;;5071141;28;20904;-77
2022/11/25 07:47:42;;;;;;;13.47;12.07;;;;;;;;;;5083522;28;20452;-77
2022/11/25 07:50:10;;;;;;;13.73;12.43;;;;;;;;;;5077109;28;20447;-77
2022/11/25 07:52:39;;;;;;;12.93;11.60;;;;;;;;;;5073792;28;20441;-77
2022/11/25 07:55:06;;;;;;;16.63;12.80;;;;;;;;;;5074115;28;20496;-77
2022/11/25 07:57:33;;;;;;;17.20;13.43;;;;;;;;;;5075312;28;20444;-76
2022/11/25 08:00:00;;;;;;;17.43;11.93;;;;;;;;;;5074445;28;20827;-77
2022/11/25 08:02:27;;;;;;;17.47;12.90;;;;;;;;;;5073927;28;20463;-76
2022/11/25 08:04:54;;;;;;;16.50;12.90;;;;;;;;;;5073018;28;20472;-78
2022/11/25 08:07:23;;;;;;;20.37;13.63;;;;;;;;;;5073621;28;20935;-76
2022/11/25 08:09:51;;;;;;;13.83;12.20;;;;;;;;;;5073348;28;20447;-77
2022/11/25 08:12:18;;;;;;;13.37;11.90;;;;;;;;;;5073521;28;20444;-77
2022/11/25 08:14:45;;;;;;;14.17;11.40;;;;;;;;;;5072749;28;20464;-77
2022/11/25 08:17:12;;;;;;;13.30;11.70;;;;;;;;;;5073481;28;20444;-77
2022/11/25 08:19:40;;;;;;;12.33;11.00;;;;;;;;;;5088358;28;20488;-76
2022/11/25 08:22:07;;;;;;;12.67;11.37;;;;;;;;;;5092571;28;20443;-77
2022/11/25 08:24:35;;;;;;;16.97;11.87;;;;;;;;;;5075545;28;20472;-77
2022/11/25 08:27:03;;;;;;;13.33;11.97;;;;;;;;;;5073808;28;20943;-77
2022/11/25 08:29:30;;;;;;;15.30;12.53;;;;;;;;;;5075481;28;20444;-77
2022/11/25 08:31:57;;;;;;;18.00;13.03;;;;;;;;;;5074957;28;20445;-77
2022/11/25 08:34:24;;;;;;;14.90;13.30;;;;;;;;;;5073035;28;20517;-76
2022/11/25 08:36:52;;;;;;;13.97;11.87;;;;;;;;;;5074613;28;20955;-76
2022/11/25 08:39:20;;;;;;;17.53;12.40;;;;;;;;;;5074285;28;20448;-76
2022/11/25 08:41:49;;;;;;;17.67;12.63;;;;;;;;;;5074332;28;20444;-77
2022/11/25 08:44:16;;;;;;;14.17;12.63;;;;;;;;;;5075753;28;20491;-78
2022/11/25 08:46:43;;;;;;;17.50;12.37;;;;;;;;;;5074250;28;20440;-77
2022/11/25 08:49:12;;;;;;;20.50;12.87;;;;;;;;;;5075590;28;20448;-77
2022/11/25 08:51:39;;;;;;;13.33;11.90;;;;;;;;;;5091252;28;20428;-77
2022/11/25 08:54:06;;;;;;;16.13;11.10;;;;;;;;;;5077194;28;20994;-76
2022/11/25 08:56:34;;;;;;;11.67;10.47;;;;;;;;;;5072915;28;20437;-77
2022/11/25 08:59:02;;;;;;;11.97;9.87;;;;;;;;;;5073167;28;20449;-76
2022/11/25 09:01:29;;;;;;;11.20;8.00;;;;;;;;;;5074201;28;20487;-77
2022/11/25 09:03:57;;;;;;;10.57;9.47;;;;;;;;;;5072213;28;20468;-77
2022/11/25 09:06:25;;;;;;;13.23;11.93;;;;;;;;;;5072799;28;20452;-76
2022/11/25 09:08:54;;;;;;;13.13;11.67;;;;;;;;;;5073202;28;20444;-77
2022/11/25 09:11:21;;;;;;;15.83;12.27;;;;;;;;;;5073100;28;20448;-78
2022/11/25 09:13:48;;;;;;;15.37;12.13;;;;;;;;;;5080245;28;20460;-76
2022/11/25 09:16:17;;;;;;;14.17;12.53;;;;;;;;;;5074074;28;20444;-77
2022/11/25 09:18:44;;;;;;;17.03;11.43;;;;;;;;;;5082264;28;20444;-76
2022/11/25 09:21:12;;;;;;;14.43;12.50;;;;;;;;;;5085580;28;20472;-77
2022/11/25 09:23:39;;;;;;;13.93;11.87;;;;;;;;;;5084683;28;20448;-76
2022/11/25 09:26:07;;;;;;;14.60;12.90;;;;;;;;;;5082114;28;20452;-77
2022/11/25 09:28:35;;;;;;;15.77;12.60;;;;;;;;;;5073226;28;20457;-77
2022/11/25 09:31:07;;;;;;;13.00;11.77;;;;;;;;;;5070001;28;20457;-77
2022/11/25 09:33:35;;;;;;;13.30;12.03;;;;;;;;;;5069674;28;20441;-77
2022/11/25 09:36:02;;;;;;;14.33;11.50;;;;;;;;;;5072405;28;20437;-77
2022/11/25 09:38:56;;;;;;;13.13;11.23;;;;;;;;;;5076430;28;20936;-77
2022/11/25 09:47:40;;;;;;;18.27;10.70;;;;;;;;;;5074845;28;20431;-78
2022/11/25 09:50:15;;;;;;;21.00;11.17;;;;;;;;;;5070938;28;20438;-78
2022/11/25 09:52:48;;;;;;;11.30;10.10;;;;;;;;;;5073745;28;21111;-78
2022/11/25 09:55:17;;;;;;;12.43;10.53;;;;;;;;;;5067368;28;20552;-78
2022/11/25 09:57:50;;;;;;;15.77;10.30;;;;;;;;;;5067018;28;20455;-77
2022/11/25 10:00:29;;;;;;;11.27;9.80;;;;;;;;;;5062803;28;20491;-76
2022/11/25 10:03:01;;;;;;;11.00;10.00;;;;;;;;;;5072063;28;20444;-77
2022/11/25 10:05:33;;;;;;;18.20;12.37;;;;;;;;;;5071184;28;20843;-78
2022/11/25 10:08:01;;;;;;;14.20;11.00;;;;;;;;;;5071780;28;20843;-77
2022/11/25 10:10:30;;;;;;;11.17;9.87;;;;;;;;;;5070366;28;20448;-78
2022/11/25 10:12:58;;;;;;;11.47;10.37;;;;;;;;;;5066672;28;20456;-77
2022/11/25 10:15:27;;;;;;;12.60;10.13;;;;;;;;;;5071416;28;20475;-77
2022/11/25 10:17:56;;;;;;;11.37;10.00;;;;;;;;;;5072221;28;20520;-78
2022/11/25 10:20:24;;;;;;;15.97;10.67;;;;;;;;;;5070893;28;20994;-79
2022/11/25 10:22:54;;;;;;;12.53;11.07;;;;;;;;;;5071192;28;20450;-77
2022/11/25 10:25:22;;;;;;;12.43;11.00;;;;;;;;;;5071095;28;20479;-77
2022/11/25 10:27:53;;;;;;;13.20;10.60;;;;;;;;;;5072915;28;20441;-78
2022/11/25 10:30:34;;;;;;;13.07;11.67;;;;;;;;;;5072896;28;20429;-77
2022/11/25 10:33:05;;;;;;;13.00;10.60;;;;;;;;;;5073346;28;20549;-78
2022/11/25 10:35:39;;;;;;;13.73;10.67;;;;;;;;;;5073852;28;20507;-77
2022/11/25 10:38:26;;;;;;;16.83;12.77;;;;;;;;;;5072541;28;20459;-77
2022/11/25 10:41:00;;;;;;;11.60;9.90;;;;;;;;;;5066410;28;20902;-77
2022/11/25 10:43:27;;;;;;;13.70;9.70;;;;;;;;;;5068894;28;20456;-78
2022/11/25 10:46:00;;;;;;;12.70;9.60;;;;;;;;;;5073475;28;20460;-77
2022/11/25 10:48:34;;;;;;;13.90;10.20;;;;;;;;;;5071747;28;20474;-77
2022/11/25 10:51:10;;;;;;;21.67;10.80;;;;;;;;;;5070364;28;20948;-77
2022/11/25 10:53:38;;;;;;;32.50;11.40;;;;;;;;;;5070001;28;20455;-77
2022/11/25 10:56:10;;;;;;;16.00;10.47;;;;;;;;;;5070831;28;20448;-78
2022/11/25 10:58:46;;;;;;;10.50;9.43;;;;;;;;;;5071753;28;20455;-77
2022/11/25 11:04:13;;;;;;;27.27;10.90;;;;;;;;;;5067540;28;20847;-77
2022/11/25 11:06:41;;;;;;;22.30;10.67;;;;;;;;;;5070321;28;20451;-77
2022/11/25 11:09:30;;;;;;;21.33;11.20;;;;;;;;;;5070560;28;20455;-78
2022/11/25 11:11:57;;;;;;;13.40;11.40;;;;;;;;;;5071037;28;20461;-78
2022/11/25 11:14:28;;;;;;;14.03;11.43;;;;;;;;;;5055560;28;20896;-78
2022/11/25 11:17:00;;;;;;;16.40;11.90;;;;;;;;;;5051114;28;20441;-76
2022/11/25 11:19:28;;;;;;;11.93;10.83;;;;;;;;;;5051831;28;20441;-78
2022/11/25 11:21:56;;;;;;;18.40;10.77;;;;;;;;;;5054367;28;20472;-77
2022/11/25 11:24:26;;;;;;;17.43;10.73;;;;;;;;;;5071364;28;20465;-78
2022/11/25 11:27:09;;;;;;;20.70;12.07;;;;;;;;;;5082826;28;20434;-77
2022/11/25 11:29:37;;;;;;;13.33;11.93;;;;;;;;;;5077219;28;20874;-78
2022/11/25 11:32:05;;;;;;;12.43;11.13;;;;;;;;;;5076581;28;20447;-77
2022/11/25 11:35:10;;;;;;;;;;;;;;;;;;;;;
2022/11/25 11:37:41;;;;;;;13.20;9.77;;;;;;;;;;5077531;28;20436;-78
2022/11/25 11:40:32;;;;;;;14.10;10.37;;;;;;;;;;5082113;28;20932;-78
2022/11/25 11:43:12;;;;;;;10.87;9.60;;;;;;;;;;5059547;28;20794;-77
2022/11/25 11:45:50;;;;;;;13.63;8.97;;;;;;;;;;5077398;28;20456;-77
2022/11/25 11:48:21;;;;;;;14.83;9.10;;;;;;;;;;5077633;28;20484;-77
2022/11/25 11:50:51;;;;;;;18.80;9.07;;;;;;;;;;5074461;28;20812;-78
2022/11/25 11:53:22;;;;;;;13.73;9.50;;;;;;;;;;5073643;28;20447;-78
2022/11/25 11:55:51;;;;;;;28.27;9.00;;;;;;;;;;5074964;28;20439;-77
2022/11/25 11:58:27;;;;;;;7.57;5.10;;;;;;;;;;5074406;28;20440;-78
2022/11/25 12:00:59;;;;;;;6.33;3.83;;;;;;;;;;5074077;28;20476;-77
2022/11/25 12:03:27;;;;;;;6.00;4.03;;;;;;;;;;5073566;28;20443;-78
2022/11/25 12:05:56;;;;;;;5.07;3.43;;;;;;;;;;5068638;28;20479;-78
2022/11/25 12:08:26;;;;;;;4.93;3.30;;;;;;;;;;5066344;28;20438;-77
2022/11/25 12:10:55;;;;;;;5.43;3.47;;;;;;;;;;5073778;28;20459;-78
2022/11/25 12:13:28;;;;;;;4.60;2.93;;;;;;;;;;5073143;28;20456;-77
2022/11/25 12:15:57;;;;;;;4.70;3.70;;;;;;;;;;5073924;28;20506;-78
2022/11/25 12:18:29;;;;;;;7.43;4.40;;;;;;;;;;5073601;28;20459;-78
2022/11/25 12:21:01;;;;;;;7.33;4.00;;;;;;;;;;5067568;28;20476;-77
2022/11/25 12:23:34;;;;;;;8.90;3.43;;;;;;;;;;5072911;28;20432;-76
2022/11/25 12:26:03;;;;;;;7.60;3.60;;;;;;;;;;5073301;28;20448;-77
2022/11/25 12:28:35;;;;;;;27.47;20.30;;;;;;;;;;5073390;28;20455;-77
2022/11/25 12:31:04;;;;;;;24.50;20.50;;;;;;;;;;5073364;28;20498;-76
2022/11/25 12:33:37;;;;;;;29.63;21.07;;;;;;;;;;5071804;28;20963;-77
2022/11/25 12:36:06;;;;;;;20.60;15.30;;;;;;;;;;5073262;28;20978;-76
2022/11/25 12:38:38;;;;;;;19.67;14.27;;;;;;;;;;5073241;28;20527;-76
2022/11/25 12:41:09;;;;;;;16.47;13.20;;;;;;;;;;5073150;28;20504;-76
2022/11/25 12:43:42;;;;;;;14.80;10.40;;;;;;;;;;5072347;28;20993;-77
2022/11/25 12:46:16;;;;;;;16.17;9.50;;;;;;;;;;5073190;28;20436;-79
2022/11/25 12:48:44;;;;;;;15.07;9.40;;;;;;;;;;5073035;28;20951;-77
2022/11/25 12:51:17;;;;;;;12.70;9.60;;;;;;;;;;5072870;28;20444;-77
2022/11/25 12:53:47;;;;;;;13.50;10.03;;;;;;;;;;5072477;28;20460;-77
2022/11/25 12:56:17;;;;;;;13.37;11.30;;;;;;;;;;5073017;28;20446;-77
2022/11/25 12:58:50;;;;;;;13.00;10.70;;;;;;;;;;5072769;28;20441;-77
2022/11/25 13:01:47;;;;;;;16.07;9.80;;;;;;;;;;5072734;28;20468;-76
2022/11/25 13:04:38;;;;;;;12.93;8.77;;;;;;;;;;5009572;28;20471;-78
2022/11/25 13:07:20;;;;;;;18.30;8.97;;;;;;;;;;5012713;28;20443;-76
2022/11/25 13:09:54;;;;;;;10.43;7.67;;;;;;;;;;5075354;28;20444;-76
2022/11/25 13:12:27;;;;;;;12.13;6.43;;;;;;;;;;5077286;28;20417;-76
2022/11/25 13:15:02;;;;;;;10.27;6.60;;;;;;;;;;5071295;28;20464;-76
2022/11/25 13:17:30;;;;;;;7.27;5.67;;;;;;;;;;5071285;28;20448;-77
2022/11/25 13:20:11;;;;;;;11.70;5.87;;;;;;;;;;5071574;28;20445;-76
2022/11/25 13:22:39;;;;;;;8.17;5.47;;;;;;;;;;5071074;28;20818;-76
2022/11/25 13:25:22;;;;;;;5.53;4.77;;;;;;;;;;5071463;28;20488;-76
2022/11/25 13:27:57;;;;;;;7.83;4.80;;;;;;;;;;5071704;28;20447;-77
2022/11/25 13:30:37;;;;;;;5.23;4.80;;;;;;;;;;5071737;28;20455;-77
2022/11/25 13:33:19;;;;;;;9.87;6.30;;;;;;;;;;5071117;28;20442;-76
2022/11/25 13:35:51;;;;;;;6.57;5.90;;;;;;;;;;5071531;28;20465;-76
2022/11/25 13:38:33;;;;;;;6.93;5.10;;;;;;;;;;5071882;28;20466;-77
2022/11/25 13:41:01;;;;;;;5.77;4.60;;;;;;;;;;5069656;28;20491;-76
2022/11/25 13:43:28;;;;;;;7.33;4.80;;;;;;;;;;5071207;28;20448;-76
2022/11/25 13:45:56;;;;;;;8.10;5.33;;;;;;;;;;5070814;28;20573;-77
2022/11/25 13:48:24;;;;;;;10.00;5.80;;;;;;;;;;5072451;28;20455;-77
2022/11/25 13:50:53;;;;;;;8.00;5.07;;;;;;;;;;5072079;28;20492;-77
2022/11/25 13:53:21;;;;;;;7.23;4.70;;;;;;;;;;5071060;28;20445;-76
2022/11/25 13:55:49;;;;;;;7.07;4.60;;;;;;;;;;5071356;28;20445;-77
2022/11/25 13:58:19;;;;;;;8.17;4.80;;;;;;;;;;5071657;28;20868;-76
2022/11/25 14:01:06;;;;;;;8.03;4.10;;;;;;;;;;5072640;28;20456;-77
2022/11/25 14:03:48;;;;;;;6.50;4.57;;;;;;;;;;5066349;28;20461;-77
2022/11/25 14:06:26;;;;;;;6.10;4.10;;;;;;;;;;5071030;28;20454;-76
2022/11/25 14:08:56;;;;;;;4.67;4.27;;;;;;;;;;5071297;28;20444;-77
2022/11/25 14:11:41;;;;;;;6.00;3.53;;;;;;;;;;5071627;28;20489;-77
2022/11/25 14:14:17;;;;;;;7.57;4.10;;;;;;;;;;5071013;28;21016;-76
2022/11/25 14:16:50;;;;;;;5.50;3.80;;;;;;;;;;5072298;28;20981;-77
2022/11/25 14:19:29;;;;;;;7.83;3.73;;;;;;;;;;5071183;28;20437;-77
2022/11/25 14:22:03;;;;;;;3.30;3.00;;;;;;;;;;5071073;28;20492;-77
2022/11/25 14:24:34;;;;;;;4.53;3.00;;;;;;;;;;5070899;28;20467;-77
2022/11/25 14:27:01;;;;;;;9.87;3.03;;;;;;;;;;5072229;28;20456;-77
2022/11/25 14:29:30;;;;;;;6.70;3.10;;;;;;;;;;5079441;28;20440;-77
2022/11/25 14:32:00;;;;;;;6.97;2.83;;;;;;;;;;5080649;28;20444;-77
2022/11/25 14:34:30;;;;;;;5.43;2.70;;;;;;;;;;5070746;28;20471;-77
2022/11/25 14:37:01;;;;;;;8.33;3.03;;;;;;;;;;5071557;28;20447;-77
2022/11/25 14:39:32;;;;;;;6.83;3.73;;;;;;;;;;5075560;28;20456;-77
2022/11/25 14:42:00;;;;;;;8.07;3.10;;;;;;;;;;5078828;28;20548;-76
2022/11/25 14:44:31;;;;;;;5.23;2.70;;;;;;;;;;5072186;28;20842;-77
2022/11/25 14:46:59;;;;;;;5.90;2.73;;;;;;;;;;5070702;28;20452;-77
2022/11/25 14:49:41;;;;;;;5.37;2.70;;;;;;;;;;5070741;28;20462;-78